Country
Station

 

Weather  for  Hunter U. S. Army Airfield  -  United States    United States

  
22 °C (72 °F)
    
 
 

Current METAR for Hunter U. S. Army Airfield is :

KSVN 181356Z 04011G18KT 10SM CLR 22/14 A3028 RMK AO2A SLP257 T02180137 FZRANO $

 

This is a report for Hunter U. S. Army Airfield - United States.
 
The report was made one hour and 2 minutes ago, at 13:56 UTC .
The wind was blowing at a speed of 5.7 meters per second (12.7 miles per hour) with gusts up to 9.3 meters per second (20.7 miles per hour) from northeast (040°).
 
The temperature was 22 °C (72 °F), with a dew-point at 14 °C (57 °F).
The temperature felt like 24 °C (76 °F).
 
The atmospheric pressure was 1025 hPa (30.28 inHg).
The relative humidity was 60.5%.
 
The sky was clear.
 
The overall visibility was 16.1 kilometers (10.0 miles).
 

 
 
 
 

Country :   A   B   C   D   E   F   G   H   I   J   K   L   M   N   O   P   Q   R   S   T   U   V   W   Y   Z

 

Site Info  |  Disclaimer  |  Credits  |  Privacy
Contact us  |  Add to favorites
© 2013-2018 METARs - All rights reserved